createdAt,value
2018-03-01T00:01:43.804Z,98685.11
2018-03-01T00:04:17.510Z,98679.64
2018-03-01T00:06:51.038Z,98669.30
2018-03-01T00:09:24.845Z,98679.20
2018-03-01T00:11:58.474Z,98669.38
2018-03-01T00:14:33.254Z,98675.98
2018-03-01T00:17:06.839Z,98674.95
2018-03-01T00:19:40.613Z,98681.56
2018-03-01T00:25:14.187Z,98680.05
2018-03-01T00:27:47.818Z,98672.06
2018-03-01T00:30:21.498Z,98678.23
2018-03-01T00:32:55.255Z,98675.69
2018-03-01T00:35:28.968Z,98669.31
2018-03-01T00:38:02.556Z,98663.03
2018-03-01T00:40:36.063Z,98660.11
2018-03-01T00:43:09.594Z,98656.33
2018-03-01T00:45:43.324Z,98655.62
2018-03-01T00:48:16.937Z,98647.13
2018-03-01T00:50:50.690Z,98645.91
2018-03-01T00:53:24.255Z,98633.34
2018-03-01T00:55:57.828Z,98631.41
2018-03-01T00:58:31.477Z,98621.90
2018-03-01T01:01:05.005Z,98629.09
2018-03-01T01:03:38.594Z,98622.02
2018-03-01T01:06:14.227Z,98626.67
2018-03-01T01:08:47.878Z,98622.42
2018-03-01T01:11:21.539Z,98628.20
2018-03-01T01:13:55.063Z,98627.64
2018-03-01T01:16:29.019Z,98631.23
2018-03-01T01:19:02.689Z,98634.87
2018-03-01T01:21:36.261Z,98630.11
2018-03-01T01:24:09.885Z,98629.49
2018-03-01T01:26:43.671Z,98622.30
2018-03-01T01:29:17.319Z,98628.75
2018-03-01T01:31:50.965Z,98630.08
2018-03-01T01:34:24.484Z,98623.02
2018-03-01T01:36:58.070Z,98630.72
2018-03-01T01:39:31.622Z,98631.94
2018-03-01T01:42:05.194Z,98621.92
2018-03-01T01:44:38.806Z,98635.58
2018-03-01T01:47:12.451Z,98611.39
2018-03-01T01:49:46.098Z,98603.38
2018-03-01T01:52:19.845Z,98599.52
2018-03-01T01:54:53.691Z,98596.34
2018-03-01T01:57:27.238Z,98595.85
2018-03-01T02:00:00.915Z,98590.28
2018-03-01T02:02:34.538Z,98579.27
2018-03-01T02:05:08.163Z,98576.83
2018-03-01T02:07:41.864Z,98569.02
2018-03-01T02:10:15.434Z,98570.54
2018-03-01T02:12:48.982Z,98551.92
2018-03-01T02:15:22.636Z,98550.28
2018-03-01T02:17:56.327Z,98541.98
2018-03-01T02:20:29.850Z,98541.28
2018-03-01T02:23:03.461Z,98539.14
2018-03-01T02:25:37.133Z,98529.73
2018-03-01T02:28:10.950Z,98523.03
2018-03-01T02:30:44.721Z,98527.39
2018-03-01T02:33:18.291Z,98520.59
2018-03-01T02:35:51.943Z,98518.06
2018-03-01T02:38:25.562Z,98507.83
2018-03-01T02:40:59.142Z,98505.61
2018-03-01T02:43:32.787Z,98504.89
2018-03-01T02:46:06.367Z,98507.53
2018-03-01T02:48:40.130Z,98490.52
2018-03-01T02:51:13.765Z,98479.69
2018-03-01T02:53:47.429Z,98468.44
2018-03-01T02:56:20.925Z,98459.33
2018-03-01T02:58:54.562Z,98448.89
2018-03-01T03:01:28.645Z,98434.01
2018-03-01T03:04:02.161Z,98425.30
2018-03-01T03:06:35.960Z,98425.38
2018-03-01T03:09:09.626Z,98421.22
2018-03-01T03:11:43.378Z,98416.80
2018-03-01T03:14:17.396Z,98403.84
2018-03-01T03:16:51.080Z,98404.45
2018-03-01T03:19:24.771Z,98417.22
2018-03-01T03:21:58.389Z,98415.29
2018-03-01T03:24:32.153Z,98418.53
2018-03-01T03:27:05.762Z,98425.83
2018-03-01T03:29:39.317Z,98426.83
2018-03-01T03:32:13.115Z,98420.97
2018-03-01T03:34:46.723Z,98414.28
2018-03-01T03:37:20.449Z,98422.28
2018-03-01T03:39:53.993Z,98416.41
2018-03-01T03:42:27.692Z,98411.75
2018-03-01T03:45:01.270Z,98400.81
2018-03-01T03:47:34.866Z,98409.92
2018-03-01T03:50:08.434Z,98395.44
2018-03-01T03:52:41.965Z,98389.57
2018-03-01T03:55:15.819Z,98402.03
2018-03-01T03:57:49.557Z,98402.87
2018-03-01T04:00:23.185Z,98392.53
2018-03-01T04:02:56.717Z,98388.18
2018-03-01T04:05:30.403Z,98390.50
2018-03-01T04:08:03.993Z,98389.39
2018-03-01T04:10:37.545Z,98391.21
2018-03-01T04:13:11.241Z,98388.08
2018-03-01T04:15:44.761Z,98384.44
2018-03-01T04:18:18.269Z,98386.96
2018-03-01T04:20:52.023Z,98377.14
2018-03-01T04:23:25.706Z,98380.07
2018-03-01T04:25:59.289Z,98382.61
2018-03-01T04:28:32.896Z,98378.25
2018-03-01T04:31:06.434Z,98365.09
2018-03-01T04:33:39.989Z,98370.33
2018-03-01T04:36:13.569Z,98382.00
2018-03-01T04:38:47.348Z,98375.39
2018-03-01T04:41:20.917Z,98379.04
2018-03-01T04:43:54.450Z,98379.14
2018-03-01T04:46:27.982Z,98368.70
2018-03-01T04:49:01.726Z,98366.91
2018-03-01T04:51:35.390Z,98372.08
2018-03-01T04:54:09.168Z,98365.19
2018-03-01T04:56:42.846Z,98365.18
2018-03-01T04:59:16.422Z,98349.57
2018-03-01T05:01:50.006Z,98340.25
2018-03-01T05:04:23.786Z,98341.86
2018-03-01T05:06:57.460Z,98333.75
2018-03-01T05:09:31.302Z,98337.41
2018-03-01T05:12:04.982Z,98331.61
2018-03-01T05:14:38.634Z,98324.83
2018-03-01T05:17:12.286Z,98326.84
2018-03-01T05:19:45.858Z,98334.16
2018-03-01T05:22:19.514Z,98333.44
2018-03-01T05:24:53.208Z,98346.30
2018-03-01T05:27:26.806Z,98345.41
2018-03-01T05:30:00.382Z,98362.33
2018-03-01T05:32:34.121Z,98369.41
2018-03-01T05:35:07.895Z,98381.27
2018-03-01T05:37:41.718Z,98380.16
2018-03-01T05:40:15.319Z,98387.95
2018-03-01T05:42:48.997Z,98388.77
2018-03-01T05:45:22.814Z,98378.23
2018-03-01T05:47:56.512Z,98376.30
2018-03-01T05:50:30.109Z,98382.80
2018-03-01T05:53:03.645Z,98372.14
2018-03-01T05:55:37.342Z,98373.69
2018-03-01T05:58:10.961Z,98368.80
2018-03-01T06:00:44.711Z,98356.44
2018-03-01T06:03:18.340Z,98345.59
2018-03-01T06:05:52.044Z,98343.88
2018-03-01T06:08:25.574Z,98345.90
2018-03-01T06:10:59.354Z,98340.95
2018-03-01T06:13:33.841Z,98347.11
2018-03-01T06:16:07.926Z,98335.05
2018-03-01T06:18:41.626Z,98344.38
2018-03-01T06:21:15.257Z,98337.28
2018-03-01T06:23:48.990Z,98338.90
2018-03-01T06:26:22.583Z,98340.30
2018-03-01T06:28:56.168Z,98349.53
2018-03-01T06:31:29.703Z,98344.88
2018-03-01T06:34:03.238Z,98344.16
2018-03-01T06:36:36.915Z,98336.55
2018-03-01T06:39:10.698Z,98334.22
2018-03-01T06:41:44.297Z,98325.58
2018-03-01T06:44:18.015Z,98329.52
2018-03-01T06:46:51.554Z,98315.82
2018-03-01T06:49:25.280Z,98311.66
2018-03-01T06:51:59.042Z,98312.98
2018-03-01T06:54:32.770Z,98316.08
2018-03-01T06:57:06.430Z,98312.74
2018-03-01T06:59:40.009Z,98329.42
2018-03-01T07:02:13.761Z,98339.98
2018-03-01T07:04:47.310Z,98339.36
2018-03-01T07:07:21.086Z,98335.50
2018-03-01T07:09:54.746Z,98327.27
2018-03-01T07:12:28.309Z,98320.17
2018-03-01T07:15:02.007Z,98314.87
2018-03-01T07:17:35.542Z,98320.35
2018-03-01T07:20:09.083Z,98315.55
2018-03-01T07:22:42.671Z,98318.66
2018-03-01T07:25:16.311Z,98309.57
2018-03-01T07:27:49.952Z,98309.32
2018-03-01T07:30:23.809Z,98320.89
2018-03-01T07:32:57.394Z,98313.77
2018-03-01T07:35:31.128Z,98311.28
2018-03-01T07:38:04.925Z,98298.40
2018-03-01T07:40:38.414Z,98296.00
2018-03-01T07:43:11.905Z,98292.55
2018-03-01T07:45:45.418Z,98292.70
2018-03-01T07:48:19.115Z,98289.27
2018-03-01T07:50:52.574Z,98291.38
2018-03-01T07:53:26.378Z,98284.86
2018-03-01T07:56:00.027Z,98279.06
2018-03-01T07:58:33.555Z,98268.13
2018-03-01T08:01:07.167Z,98264.45
2018-03-01T08:03:40.726Z,98264.34
2018-03-01T08:06:14.350Z,98262.39
2018-03-01T08:08:47.986Z,98254.46
2018-03-01T08:11:21.654Z,98252.70
2018-03-01T08:13:55.242Z,98243.24
2018-03-01T08:16:29.070Z,98259.82
2018-03-01T08:19:02.694Z,98258.70
2018-03-01T08:21:36.234Z,98254.19
2018-03-01T08:24:09.809Z,98255.22
2018-03-01T08:26:57.200Z,98241.91
2018-03-01T08:29:30.902Z,98242.22
2018-03-01T08:32:04.554Z,98234.23
2018-03-01T08:34:38.170Z,98238.84
2018-03-01T08:37:11.719Z,98231.88
2018-03-01T08:39:45.410Z,98225.86
2018-03-01T08:42:19.223Z,98229.76
2018-03-01T08:44:52.961Z,98226.64
2018-03-01T08:47:26.457Z,98229.18
2018-03-01T08:50:00.164Z,98218.08
2018-03-01T08:52:33.824Z,98211.48
2018-03-01T08:55:07.486Z,98213.25
2018-03-01T08:57:41.113Z,98207.48
2018-03-01T09:00:14.702Z,98196.05
2018-03-01T09:02:48.257Z,98192.81
2018-03-01T09:05:21.899Z,98185.14
2018-03-01T09:07:55.567Z,98184.19
2018-03-01T09:10:29.082Z,98180.86
2018-03-01T09:13:02.693Z,98174.66
2018-03-01T09:15:36.214Z,98155.97
2018-03-01T09:18:09.962Z,98137.80
2018-03-01T09:20:43.682Z,98126.56
2018-03-01T09:23:17.240Z,98122.41
2018-03-01T09:25:50.939Z,98125.63
2018-03-01T09:28:24.570Z,98123.75
2018-03-01T09:30:58.221Z,98108.11
2018-03-01T09:33:31.866Z,98124.11
2018-03-01T09:36:05.426Z,98117.01
2018-03-01T09:38:38.975Z,98115.30
2018-03-01T09:41:12.565Z,98105.69
2018-03-01T09:43:46.094Z,98106.81
2018-03-01T09:46:19.898Z,98098.13
2018-03-01T09:48:53.653Z,98109.92
2018-03-01T09:51:27.205Z,98115.39
2018-03-01T09:54:00.950Z,98098.95
2018-03-01T09:56:34.553Z,98102.52
2018-03-01T09:59:08.105Z,98090.56
2018-03-01T10:01:41.888Z,98077.75
2018-03-01T10:04:15.548Z,98086.38
2018-03-01T10:06:49.342Z,98084.00
2018-03-01T10:09:22.992Z,98076.08
2018-03-01T10:11:56.762Z,98081.33
2018-03-01T10:14:30.443Z,98087.66
2018-03-01T10:17:04.294Z,98084.77
2018-03-01T10:19:37.954Z,98086.77
2018-03-01T10:22:11.669Z,98088.95
2018-03-01T10:24:45.262Z,98091.76
2018-03-01T10:27:18.815Z,98081.92
2018-03-01T10:29:52.503Z,98075.80
2018-03-01T10:32:26.122Z,98088.33
2018-03-01T10:34:59.771Z,98091.39
2018-03-01T10:37:33.671Z,98087.80
2018-03-01T10:40:07.302Z,98092.19
2018-03-01T10:42:40.914Z,98088.97
2018-03-01T10:45:14.517Z,98083.09
2018-03-01T10:47:48.061Z,98069.59
2018-03-01T10:50:21.671Z,98069.44
2018-03-01T10:52:55.234Z,98056.45
2018-03-01T10:55:28.912Z,98064.66
2018-03-01T10:58:02.547Z,98073.19
2018-03-01T11:00:41.837Z,98061.69
2018-03-01T11:03:15.546Z,98060.34
2018-03-01T11:05:49.191Z,98048.31
2018-03-01T11:08:22.771Z,98040.66
2018-03-01T11:10:56.430Z,98040.93
2018-03-01T11:13:30.062Z,98044.48
2018-03-01T11:16:03.657Z,98043.79
2018-03-01T11:18:37.360Z,98026.32
2018-03-01T11:21:11.013Z,98032.91
2018-03-01T11:23:44.591Z,98029.00
2018-03-01T11:26:18.076Z,98020.65
2018-03-01T11:28:51.642Z,98007.16
2018-03-01T11:31:25.286Z,98010.18
2018-03-01T11:33:59.138Z,97994.85
2018-03-01T11:36:32.833Z,97987.16
2018-03-01T11:39:06.483Z,97981.67
2018-03-01T11:41:40.193Z,97976.75
2018-03-01T11:44:13.886Z,97967.38
2018-03-01T11:46:47.474Z,97962.97
2018-03-01T11:49:21.026Z,97952.29
2018-03-01T11:51:54.706Z,97953.92
2018-03-01T11:54:28.282Z,97951.92
2018-03-01T11:57:01.921Z,97944.32
2018-03-01T11:59:35.582Z,97945.38
2018-03-01T12:02:09.187Z,97941.22
2018-03-01T12:04:42.818Z,97949.66
2018-03-01T12:07:16.375Z,97931.91
2018-03-01T12:09:49.889Z,97934.94
2018-03-01T12:12:23.510Z,97931.73
2018-03-01T12:14:57.263Z,97934.92
2018-03-01T12:17:30.717Z,97933.07
2018-03-01T12:20:04.463Z,97928.88
2018-03-01T12:22:37.939Z,97920.00
2018-03-01T12:25:11.569Z,97922.56
2018-03-01T12:27:45.253Z,97924.27
2018-03-01T12:30:19.098Z,97915.49
2018-03-01T12:32:52.765Z,97912.28
2018-03-01T12:35:26.331Z,97906.02
2018-03-01T12:37:59.840Z,97910.41
2018-03-01T12:40:33.439Z,97902.81
2018-03-01T12:43:07.050Z,97905.20
2018-03-01T12:45:40.606Z,97909.75
2018-03-01T12:48:14.273Z,97899.71
2018-03-01T12:50:47.994Z,97902.00
2018-03-01T12:53:21.750Z,97889.05
2018-03-01T12:55:55.466Z,97887.58
2018-03-01T12:58:29.117Z,97895.59
2018-03-01T13:01:02.854Z,97886.64
2018-03-01T13:03:36.588Z,97882.25
2018-03-01T13:06:10.094Z,97890.11
2018-03-01T13:08:43.813Z,97899.33
2018-03-01T13:11:17.495Z,97890.11
2018-03-01T13:13:51.117Z,97888.23
2018-03-01T13:16:24.680Z,97874.48
2018-03-01T13:18:58.178Z,97872.50
2018-03-01T13:21:31.742Z,97858.06
2018-03-01T13:24:05.304Z,97869.13
2018-03-01T13:26:38.895Z,97867.55
2018-03-01T13:29:12.610Z,97856.81
2018-03-01T13:31:48.116Z,97860.54
2018-03-01T13:34:22.542Z,97848.34
2018-03-01T13:36:56.283Z,97849.89
2018-03-01T13:39:30.042Z,97855.23
2018-03-01T13:42:20.320Z,97846.20
2018-03-01T13:44:54.077Z,97847.78
2018-03-01T13:50:25.473Z,97819.21
2018-03-01T13:52:59.086Z,97825.90
2018-03-01T13:55:32.766Z,97812.99
2018-03-01T13:58:06.313Z,97817.94
2018-03-01T14:00:39.974Z,97808.67
2018-03-01T14:03:13.615Z,97804.96
2018-03-01T14:05:59.993Z,97804.03
2018-03-01T14:08:33.703Z,97805.75
2018-03-01T14:11:07.238Z,97792.83
2018-03-01T14:13:43.436Z,97804.49
2018-03-01T14:16:16.981Z,97792.42
2018-03-01T14:19:05.650Z,97788.09
2018-03-01T14:21:40.821Z,97783.19
2018-03-01T14:24:14.925Z,97782.87
2018-03-01T14:30:05.879Z,97780.12
2018-03-01T14:32:39.391Z,97777.59
2018-03-01T14:35:13.160Z,97787.72
2018-03-01T14:37:46.775Z,97784.00
2018-03-01T14:40:20.407Z,97776.08
2018-03-01T14:42:54.082Z,97772.45
2018-03-01T14:45:27.706Z,97773.13
2018-03-01T14:48:01.326Z,97757.67
2018-03-01T14:50:34.954Z,97760.09
2018-03-01T14:53:08.600Z,97760.61
2018-03-01T14:55:42.241Z,97766.78
2018-03-01T14:58:15.910Z,97761.52
2018-03-01T15:00:49.481Z,97749.98
2018-03-01T15:03:23.082Z,97752.27
2018-03-01T15:05:56.677Z,97751.16
2018-03-01T15:08:30.230Z,97744.73
2018-03-01T15:11:03.966Z,97739.70
2018-03-01T15:13:37.726Z,97740.46
2018-03-01T15:16:11.470Z,97746.99
2018-03-01T15:18:45.181Z,97738.28
2018-03-01T15:21:18.854Z,97734.23
2018-03-01T15:23:52.511Z,97732.03
2018-03-01T15:26:26.125Z,97726.02
2018-03-01T15:28:59.723Z,97730.16
2018-03-01T15:31:33.345Z,97728.70
2018-03-01T15:34:07.045Z,97719.25
2018-03-01T15:36:40.796Z,97718.48
2018-03-01T15:39:14.442Z,97718.08
2018-03-01T15:41:47.966Z,97708.48
2018-03-01T15:44:21.486Z,97700.61
2018-03-01T15:46:55.015Z,97696.48
2018-03-01T15:49:28.932Z,97707.44
2018-03-01T15:52:02.647Z,97703.04
2018-03-01T15:54:36.274Z,97703.33
2018-03-01T15:57:09.945Z,97711.47
2018-03-01T15:59:43.753Z,97705.88
2018-03-01T16:02:17.366Z,97698.54
2018-03-01T16:04:51.093Z,97690.98
2018-03-01T16:07:24.853Z,97699.20
2018-03-01T16:09:58.650Z,97698.56
2018-03-01T16:12:32.336Z,97693.92
2018-03-01T16:15:06.086Z,97695.64
2018-03-01T16:17:39.745Z,97697.78
2018-03-01T16:20:13.518Z,97694.45
2018-03-01T16:22:47.197Z,97706.45
2018-03-01T16:25:20.773Z,97710.72
2018-03-01T16:27:54.489Z,97724.00
2018-03-01T16:30:28.228Z,97720.28
2018-03-01T16:33:02.279Z,97716.02
2018-03-01T16:35:35.921Z,97717.60
2018-03-01T16:38:09.684Z,97724.13
2018-03-01T16:40:43.367Z,97716.27
2018-03-01T16:43:16.947Z,97708.14
2018-03-01T16:49:15.484Z,97719.53
2018-03-01T16:51:49.183Z,97723.50
2018-03-01T16:54:22.860Z,97720.03
2018-03-01T16:56:56.663Z,97730.49
2018-03-01T16:59:30.255Z,97740.19
2018-03-01T17:02:04.009Z,97741.92
2018-03-01T17:04:37.598Z,97749.75
2018-03-01T17:07:11.265Z,97748.12
2018-03-01T17:09:45.009Z,97750.85
2018-03-01T17:12:18.727Z,97759.06
2018-03-01T17:14:52.521Z,97750.28
2018-03-01T17:17:26.300Z,97750.81
2018-03-01T17:20:00.031Z,97747.88
2018-03-01T17:22:33.686Z,97755.44
2018-03-01T17:25:07.337Z,97746.08
2018-03-01T17:27:41.069Z,97756.59
2018-03-01T17:30:14.645Z,97755.26
2018-03-01T17:32:48.238Z,97758.26
2018-03-01T17:35:21.821Z,97760.10
2018-03-01T17:37:55.421Z,97750.63
2018-03-01T17:40:29.157Z,97754.53
2018-03-01T17:43:02.719Z,97757.31
2018-03-01T17:45:36.402Z,97741.37
2018-03-01T17:48:10.081Z,97738.42
2018-03-01T17:50:43.715Z,97735.59
2018-03-01T17:53:17.350Z,97736.05
2018-03-01T17:55:50.965Z,97742.98
2018-03-01T17:58:24.578Z,97735.31
2018-03-01T18:00:58.430Z,97735.13
2018-03-01T18:03:32.144Z,97734.94
2018-03-01T18:06:05.938Z,97746.72
2018-03-01T18:08:39.860Z,97737.96
2018-03-01T18:11:13.554Z,97733.41
2018-03-01T18:13:47.263Z,97723.80
2018-03-01T18:16:21.050Z,97720.19
2018-03-01T18:18:55.084Z,97722.53
2018-03-01T18:21:29.091Z,97728.52
2018-03-01T18:24:02.633Z,97723.35
2018-03-01T18:26:36.518Z,97714.02
2018-03-01T18:29:10.103Z,97707.84
2018-03-01T18:31:43.746Z,97713.70
2018-03-01T18:34:17.327Z,97717.12
2018-03-01T18:36:50.931Z,97719.91
2018-03-01T18:39:24.676Z,97723.70
2018-03-01T18:41:58.229Z,97718.31
2018-03-01T18:44:31.776Z,97713.13
2018-03-01T18:47:19.063Z,97713.25
2018-03-01T18:49:52.726Z,97715.11
2018-03-01T18:52:26.429Z,97712.52
2018-03-01T18:55:00.179Z,97703.85
2018-03-01T18:57:33.765Z,97710.61
2018-03-01T19:00:07.419Z,97711.62
2018-03-01T19:02:41.362Z,97715.30
2018-03-01T19:05:15.042Z,97712.00
2018-03-01T19:07:48.616Z,97715.33
2018-03-01T19:10:22.385Z,97712.14
2018-03-01T19:12:56.040Z,97711.09
2018-03-01T19:15:29.869Z,97715.91
2018-03-01T19:18:03.450Z,97709.49
2018-03-01T19:20:36.990Z,97711.44
2018-03-01T19:23:10.558Z,97704.36
2018-03-01T19:25:44.212Z,97709.81
2018-03-01T19:28:17.902Z,97720.60
2018-03-01T19:30:51.583Z,97711.39
2018-03-01T19:33:25.302Z,97716.36
2018-03-01T19:35:58.812Z,97713.49
2018-03-01T19:38:32.381Z,97698.56
2018-03-01T19:41:06.101Z,97695.77
2018-03-01T19:43:39.786Z,97690.13
2018-03-01T19:46:13.521Z,97686.62
2018-03-01T19:48:47.165Z,97687.91
2018-03-01T19:51:20.690Z,97680.09
2018-03-01T19:53:54.272Z,97683.61
2018-03-01T19:56:27.965Z,97679.23
2018-03-01T19:59:01.505Z,97674.67
2018-03-01T20:01:35.125Z,97679.52
2018-03-01T20:04:08.702Z,97661.97
2018-03-01T20:06:42.323Z,97659.78
2018-03-01T20:09:15.845Z,97661.70
2018-03-01T20:11:49.378Z,97656.52
2018-03-01T20:14:23.001Z,97650.59
2018-03-01T20:16:56.563Z,97645.77
2018-03-01T20:19:30.193Z,97642.80
2018-03-01T20:22:03.901Z,97649.25
2018-03-01T20:24:37.693Z,97637.82
2018-03-01T20:27:11.387Z,97637.27
2018-03-01T20:29:45.142Z,97630.33
2018-03-01T20:32:18.727Z,97637.11
2018-03-01T20:34:52.514Z,97633.91
2018-03-01T20:37:26.241Z,97630.30
2018-03-01T20:39:59.941Z,97630.24
2018-03-01T20:42:33.822Z,97637.42
2018-03-01T20:45:07.373Z,97640.60
2018-03-01T20:47:40.937Z,97644.55
2018-03-01T20:50:14.577Z,97643.06
2018-03-01T20:52:48.350Z,97641.25
2018-03-01T20:55:21.993Z,97649.38
2018-03-01T20:57:55.656Z,97647.50
2018-03-01T21:00:29.242Z,97641.25
2018-03-01T21:03:02.829Z,97635.36
2018-03-01T21:05:36.413Z,97627.29
2018-03-01T21:08:10.111Z,97620.30
2018-03-01T21:10:43.838Z,97623.00
2018-03-01T21:13:17.378Z,97621.55
2018-03-01T21:15:50.950Z,97617.42
2018-03-01T21:18:24.662Z,97615.86
2018-03-01T21:20:58.310Z,97617.02
2018-03-01T21:23:31.889Z,97621.71
2018-03-01T21:26:05.839Z,97621.06
2018-03-01T21:28:39.452Z,97622.20
2018-03-01T21:31:13.122Z,97621.00
2018-03-01T21:33:46.638Z,97624.52
2018-03-01T21:36:20.226Z,97624.97
2018-03-01T21:38:54.126Z,97624.17
2018-03-01T21:41:27.724Z,97621.73
2018-03-01T21:44:01.470Z,97623.61
2018-03-01T21:46:39.494Z,97618.68
2018-03-01T21:49:13.078Z,97609.38
2018-03-01T21:51:46.634Z,97610.60
2018-03-01T21:54:20.290Z,97607.61
2018-03-01T21:56:54.070Z,97598.78
2018-03-01T21:59:27.594Z,97593.36
2018-03-01T22:02:01.386Z,97594.41
2018-03-01T22:04:35.056Z,97588.47
2018-03-01T22:07:22.587Z,97593.05
2018-03-01T22:09:56.204Z,97580.03
2018-03-01T22:12:29.894Z,97572.34
2018-03-01T22:15:03.522Z,97581.87
2018-03-01T22:17:37.267Z,97585.38
2018-03-01T22:20:10.955Z,97588.55
2018-03-01T22:22:44.751Z,97584.20
2018-03-01T22:25:18.591Z,97580.76
2018-03-01T22:27:52.251Z,97584.88
2018-03-01T22:30:25.790Z,97584.45
2018-03-01T22:32:59.347Z,97578.91
2018-03-01T22:35:33.010Z,97579.22
2018-03-01T22:38:06.645Z,97569.80
2018-03-01T22:40:40.498Z,97573.39
2018-03-01T22:43:14.203Z,97577.73
2018-03-01T22:45:48.047Z,97570.95
2018-03-01T22:48:21.739Z,97569.51
2018-03-01T22:50:55.494Z,97576.89
2018-03-01T22:53:28.989Z,97575.55
2018-03-01T22:56:02.682Z,97571.30
2018-03-01T22:58:36.284Z,97570.22
2018-03-01T23:01:10.017Z,97571.33
2018-03-01T23:03:43.695Z,97565.91
2018-03-01T23:06:17.425Z,97564.67
2018-03-01T23:08:51.009Z,97571.18
2018-03-01T23:11:24.826Z,97565.77
2018-03-01T23:13:58.510Z,97572.73
2018-03-01T23:16:32.170Z,97567.77
2018-03-01T23:19:05.862Z,97569.97
2018-03-01T23:21:39.566Z,97567.77
2018-03-01T23:24:13.216Z,97568.69
2018-03-01T23:26:47.020Z,97563.77
2018-03-01T23:29:20.727Z,97558.12
2018-03-01T23:31:54.441Z,97552.48
2018-03-01T23:34:28.125Z,97549.00
2018-03-01T23:37:01.894Z,97547.13
2018-03-01T23:39:35.478Z,97544.36
2018-03-01T23:42:09.157Z,97543.19
2018-03-01T23:44:42.833Z,97539.46
2018-03-01T23:47:16.436Z,97542.31
2018-03-01T23:49:50.150Z,97530.90
2018-03-01T23:52:23.853Z,97527.74
2018-03-01T23:54:57.382Z,97526.82
2018-03-01T23:57:31.095Z,97525.38
